sensor_id;sensor_type;location;lat;lon;timestamp;temperature;humidity
37242;DHT22;23135;51.078;12.108;2022-12-18T00:00:42;-8.60;99.90
37242;DHT22;23135;51.078;12.108;2022-12-18T00:03:08;-8.60;99.90
37242;DHT22;23135;51.078;12.108;2022-12-18T00:05:33;-8.70;99.90
37242;DHT22;23135;51.078;12.108;2022-12-18T00:07:59;-8.80;99.90
37242;DHT22;23135;51.078;12.108;2022-12-18T00:10:24;-8.80;99.90
37242;DHT22;23135;51.078;12.108;2022-12-18T00:12:50;-8.80;99.90
37242;DHT22;23135;51.078;12.108;2022-12-18T00:15:16;-8.90;99.90
37242;DHT22;23135;51.078;12.108;2022-12-18T00:17:41;-9.00;99.90
37242;DHT22;23135;51.078;12.108;2022-12-18T00:20:07;-9.00;99.90
37242;DHT22;23135;51.078;12.108;2022-12-18T00:22:33;-9.00;99.90
37242;DHT22;23135;51.078;12.108;2022-12-18T00:24:59;-9.00;99.90
37242;DHT22;23135;51.078;12.108;2022-12-18T00:27:25;-8.90;99.90
37242;DHT22;23135;51.078;12.108;2022-12-18T00:29:50;-8.90;99.90
37242;DHT22;23135;51.078;12.108;2022-12-18T00:32:16;-9.00;99.90
37242;DHT22;23135;51.078;12.108;2022-12-18T00:34:42;-9.00;99.90
37242;DHT22;23135;51.078;12.108;2022-12-18T00:37:07;-9.10;99.90
37242;DHT22;23135;51.078;12.108;2022-12-18T00:39:33;-9.20;99.90
37242;DHT22;23135;51.078;12.108;2022-12-18T00:41:58;-9.40;99.90
37242;DHT22;23135;51.078;12.108;2022-12-18T00:44:43;-9.50;99.90
37242;DHT22;23135;51.078;12.108;2022-12-18T00:47:08;-9.50;99.90
37242;DHT22;23135;51.078;12.108;2022-12-18T00:49:34;-9.60;99.90
37242;DHT22;23135;51.078;12.108;2022-12-18T00:51:59;-9.60;99.90
37242;DHT22;23135;51.078;12.108;2022-12-18T00:54:25;-9.70;99.90
37242;DHT22;23135;51.078;12.108;2022-12-18T00:56:51;-9.70;99.90
37242;DHT22;23135;51.078;12.108;2022-12-18T00:59:17;-9.60;99.90
37242;DHT22;23135;51.078;12.108;2022-12-18T01:01:44;-9.60;99.90
37242;DHT22;23135;51.078;12.108;2022-12-18T01:04:10;-9.60;99.90
37242;DHT22;23135;51.078;12.108;2022-12-18T01:06:35;-9.50;99.90
37242;DHT22;23135;51.078;12.108;2022-12-18T01:09:02;-9.40;99.90
37242;DHT22;23135;51.078;12.108;2022-12-18T01:11:28;-9.30;99.90
37242;DHT22;23135;51.078;12.108;2022-12-18T01:13:54;-9.20;99.90
37242;DHT22;23135;51.078;12.108;2022-12-18T01:16:20;-9.20;99.90
37242;DHT22;23135;51.078;12.108;2022-12-18T01:18:46;-9.20;99.90
37242;DHT22;23135;51.078;12.108;2022-12-18T01:21:16;-9.10;99.90
37242;DHT22;23135;51.078;12.108;2022-12-18T01:23:42;-9.10;99.90
37242;DHT22;23135;51.078;12.108;2022-12-18T01:26:11;-9.10;99.90
37242;DHT22;23135;51.078;12.108;2022-12-18T01:28:38;-9.20;99.90
37242;DHT22;23135;51.078;12.108;2022-12-18T01:31:31;-9.20;99.90
37242;DHT22;23135;51.078;12.108;2022-12-18T01:33:59;-9.40;99.90
37242;DHT22;23135;51.078;12.108;2022-12-18T01:36:31;-9.30;99.90
37242;DHT22;23135;51.078;12.108;2022-12-18T01:38:58;-9.20;99.90
37242;DHT22;23135;51.078;12.108;2022-12-18T01:41:26;-9.10;99.90
37242;DHT22;23135;51.078;12.108;2022-12-18T01:44:52;-9.00;99.90
37242;DHT22;23135;51.078;12.108;2022-12-18T01:47:23;-8.90;99.90
37242;DHT22;23135;51.078;12.108;2022-12-18T01:49:49;-8.80;99.90
37242;DHT22;23135;51.078;12.108;2022-12-18T01:52:16;-8.60;99.90
37242;DHT22;23135;51.078;12.108;2022-12-18T01:54:42;-8.60;99.90
37242;DHT22;23135;51.078;12.108;2022-12-18T01:57:08;-8.70;99.90
37242;DHT22;23135;51.078;12.108;2022-12-18T01:59:35;-8.80;99.90
37242;DHT22;23135;51.078;12.108;2022-12-18T02:02:01;-8.80;99.90
37242;DHT22;23135;51.078;12.108;2022-12-18T02:04:28;-8.80;99.90
37242;DHT22;23135;51.078;12.108;2022-12-18T02:07:06;-9.00;99.90
37242;DHT22;23135;51.078;12.108;2022-12-18T02:09:40;-9.00;99.90
37242;DHT22;23135;51.078;12.108;2022-12-18T02:12:20;-9.00;99.90
37242;DHT22;23135;51.078;12.108;2022-12-18T02:18:00;-8.90;99.90
37242;DHT22;23135;51.078;12.108;2022-12-18T02:20:46;-8.90;99.90
37242;DHT22;23135;51.078;12.108;2022-12-18T02:28:40;-8.80;99.90
37242;DHT22;23135;51.078;12.108;2022-12-18T02:31:10;-8.90;99.90
37242;DHT22;23135;51.078;12.108;2022-12-18T02:33:37;-8.90;99.90
37242;DHT22;23135;51.078;12.108;2022-12-18T02:36:04;-9.00;99.90
37242;DHT22;23135;51.078;12.108;2022-12-18T02:38:31;-9.00;99.90
37242;DHT22;23135;51.078;12.108;2022-12-18T02:40:57;-9.00;99.90
37242;DHT22;23135;51.078;12.108;2022-12-18T02:43:24;-9.00;99.90
37242;DHT22;23135;51.078;12.108;2022-12-18T02:45:54;-9.10;99.90
37242;DHT22;23135;51.078;12.108;2022-12-18T02:48:34;-9.10;99.90
37242;DHT22;23135;51.078;12.108;2022-12-18T02:51:15;-9.10;99.90
37242;DHT22;23135;51.078;12.108;2022-12-18T02:53:53;-9.10;99.90
37242;DHT22;23135;51.078;12.108;2022-12-18T02:56:37;-9.20;99.90
37242;DHT22;23135;51.078;12.108;2022-12-18T02:59:05;-9.10;99.90
37242;DHT22;23135;51.078;12.108;2022-12-18T03:04:28;-9.10;99.90
37242;DHT22;23135;51.078;12.108;2022-12-18T03:06:57;-9.10;99.90
37242;DHT22;23135;51.078;12.108;2022-12-18T03:09:34;-9.30;99.90
37242;DHT22;23135;51.078;12.108;2022-12-18T03:12:31;-9.50;99.90
37242;DHT22;23135;51.078;12.108;2022-12-18T03:15:19;-9.50;99.90
37242;DHT22;23135;51.078;12.108;2022-12-18T03:17:55;-9.40;99.90
37242;DHT22;23135;51.078;12.108;2022-12-18T03:20:22;-9.40;99.90
37242;DHT22;23135;51.078;12.108;2022-12-18T03:22:53;-9.40;99.90
37242;DHT22;23135;51.078;12.108;2022-12-18T03:25:21;-9.40;99.90
37242;DHT22;23135;51.078;12.108;2022-12-18T03:27:50;-9.50;99.90
37242;DHT22;23135;51.078;12.108;2022-12-18T03:30:17;-9.40;99.90
37242;DHT22;23135;51.078;12.108;2022-12-18T03:35:20;-9.30;99.90
37242;DHT22;23135;51.078;12.108;2022-12-18T03:37:47;-9.30;99.90
37242;DHT22;23135;51.078;12.108;2022-12-18T03:40:12;-9.30;99.90
37242;DHT22;23135;51.078;12.108;2022-12-18T03:43:03;-9.40;99.90
37242;DHT22;23135;51.078;12.108;2022-12-18T03:45:37;-9.50;99.90
37242;DHT22;23135;51.078;12.108;2022-12-18T03:48:13;-9.50;99.90
37242;DHT22;23135;51.078;12.108;2022-12-18T03:51:00;-9.40;99.90
37242;DHT22;23135;51.078;12.108;2022-12-18T03:56:08;-9.30;99.90
37242;DHT22;23135;51.078;12.108;2022-12-18T03:58:36;-9.30;99.90
37242;DHT22;23135;51.078;12.108;2022-12-18T04:01:05;-9.40;99.90
37242;DHT22;23135;51.078;12.108;2022-12-18T04:03:33;-9.40;99.90
37242;DHT22;23135;51.078;12.108;2022-12-18T04:05:59;-9.30;99.90
37242;DHT22;23135;51.078;12.108;2022-12-18T04:08:26;-9.30;99.90
37242;DHT22;23135;51.078;12.108;2022-12-18T04:10:52;-9.20;99.90
37242;DHT22;23135;51.078;12.108;2022-12-18T04:13:23;-9.30;99.90
37242;DHT22;23135;51.078;12.108;2022-12-18T04:15:49;-9.30;99.90
37242;DHT22;23135;51.078;12.108;2022-12-18T04:18:14;-9.30;99.90
37242;DHT22;23135;51.078;12.108;2022-12-18T04:20:40;-9.40;99.90
37242;DHT22;23135;51.078;12.108;2022-12-18T04:23:05;-9.40;99.90
37242;DHT22;23135;51.078;12.108;2022-12-18T04:25:31;-9.30;99.90
37242;DHT22;23135;51.078;12.108;2022-12-18T04:27:57;-9.30;99.90
37242;DHT22;23135;51.078;12.108;2022-12-18T04:30:22;-9.20;99.90
37242;DHT22;23135;51.078;12.108;2022-12-18T04:32:48;-9.10;99.90
37242;DHT22;23135;51.078;12.108;2022-12-18T04:35:13;-9.10;99.90
37242;DHT22;23135;51.078;12.108;2022-12-18T04:37:39;-9.10;99.90
37242;DHT22;23135;51.078;12.108;2022-12-18T04:40:05;-9.10;99.90
37242;DHT22;23135;51.078;12.108;2022-12-18T04:42:31;-9.20;99.90
37242;DHT22;23135;51.078;12.108;2022-12-18T04:44:56;-9.30;99.90
37242;DHT22;23135;51.078;12.108;2022-12-18T04:47:22;-9.40;99.90
37242;DHT22;23135;51.078;12.108;2022-12-18T04:49:47;-9.50;99.90
37242;DHT22;23135;51.078;12.108;2022-12-18T04:52:13;-9.50;99.90
37242;DHT22;23135;51.078;12.108;2022-12-18T04:54:39;-9.50;99.90
37242;DHT22;23135;51.078;12.108;2022-12-18T04:57:04;-9.50;99.90
37242;DHT22;23135;51.078;12.108;2022-12-18T04:59:30;-9.40;99.90
37242;DHT22;23135;51.078;12.108;2022-12-18T05:01:55;-9.40;99.90
37242;DHT22;23135;51.078;12.108;2022-12-18T05:04:21;-9.40;99.90
37242;DHT22;23135;51.078;12.108;2022-12-18T05:06:46;-9.50;99.90
37242;DHT22;23135;51.078;12.108;2022-12-18T05:09:12;-9.50;99.90
37242;DHT22;23135;51.078;12.108;2022-12-18T05:11:38;-9.60;99.90
37242;DHT22;23135;51.078;12.108;2022-12-18T05:14:03;-9.50;99.90
37242;DHT22;23135;51.078;12.108;2022-12-18T05:16:29;-9.50;99.90
37242;DHT22;23135;51.078;12.108;2022-12-18T05:18:54;-9.50;99.90
37242;DHT22;23135;51.078;12.108;2022-12-18T05:21:20;-9.60;99.90
37242;DHT22;23135;51.078;12.108;2022-12-18T05:23:46;-9.70;99.90
37242;DHT22;23135;51.078;12.108;2022-12-18T05:26:16;-9.60;99.90
37242;DHT22;23135;51.078;12.108;2022-12-18T05:28:42;-9.50;99.90
37242;DHT22;23135;51.078;12.108;2022-12-18T05:31:09;-9.40;99.90
37242;DHT22;23135;51.078;12.108;2022-12-18T05:33:35;-9.40;99.90
37242;DHT22;23135;51.078;12.108;2022-12-18T05:36:02;-9.50;99.90
37242;DHT22;23135;51.078;12.108;2022-12-18T05:38:29;-9.60;99.90
37242;DHT22;23135;51.078;12.108;2022-12-18T05:40:55;-9.50;99.90
37242;DHT22;23135;51.078;12.108;2022-12-18T05:43:24;-9.50;99.90
37242;DHT22;23135;51.078;12.108;2022-12-18T05:45:50;-9.50;99.90
37242;DHT22;23135;51.078;12.108;2022-12-18T05:48:16;-9.60;99.90
37242;DHT22;23135;51.078;12.108;2022-12-18T05:50:44;-9.70;99.90
37242;DHT22;23135;51.078;12.108;2022-12-18T05:53:14;-9.80;99.90
37242;DHT22;23135;51.078;12.108;2022-12-18T05:55:41;-9.80;99.90
37242;DHT22;23135;51.078;12.108;2022-12-18T05:58:09;-9.90;99.90
37242;DHT22;23135;51.078;12.108;2022-12-18T06:00:37;-9.80;99.90
37242;DHT22;23135;51.078;12.108;2022-12-18T06:03:10;-9.80;99.90
37242;DHT22;23135;51.078;12.108;2022-12-18T06:05:46;-9.70;99.90
37242;DHT22;23135;51.078;12.108;2022-12-18T06:08:12;-9.60;99.90
37242;DHT22;23135;51.078;12.108;2022-12-18T06:10:39;-9.60;99.90
37242;DHT22;23135;51.078;12.108;2022-12-18T06:13:06;-9.50;99.90
37242;DHT22;23135;51.078;12.108;2022-12-18T06:15:32;-9.40;99.90
37242;DHT22;23135;51.078;12.108;2022-12-18T06:17:58;-9.40;99.90
37242;DHT22;23135;51.078;12.108;2022-12-18T06:20:23;-9.40;99.90
37242;DHT22;23135;51.078;12.108;2022-12-18T06:22:49;-9.40;99.90
37242;DHT22;23135;51.078;12.108;2022-12-18T06:25:15;-9.50;99.90
37242;DHT22;23135;51.078;12.108;2022-12-18T06:27:40;-9.60;99.90
37242;DHT22;23135;51.078;12.108;2022-12-18T06:30:07;-9.70;99.90
37242;DHT22;23135;51.078;12.108;2022-12-18T06:32:32;-9.70;99.90
37242;DHT22;23135;51.078;12.108;2022-12-18T06:34:59;-9.80;99.90
37242;DHT22;23135;51.078;12.108;2022-12-18T06:37:24;-9.70;99.90
37242;DHT22;23135;51.078;12.108;2022-12-18T06:39:54;-9.70;99.90
37242;DHT22;23135;51.078;12.108;2022-12-18T06:42:22;-9.70;99.90
37242;DHT22;23135;51.078;12.108;2022-12-18T06:44:47;-9.70;99.90
37242;DHT22;23135;51.078;12.108;2022-12-18T06:47:13;-9.80;99.90
37242;DHT22;23135;51.078;12.108;2022-12-18T06:49:38;-9.70;99.90
37242;DHT22;23135;51.078;12.108;2022-12-18T06:52:04;-9.60;99.90
37242;DHT22;23135;51.078;12.108;2022-12-18T06:54:30;-9.60;99.90
37242;DHT22;23135;51.078;12.108;2022-12-18T06:56:55;-9.70;99.90
37242;DHT22;23135;51.078;12.108;2022-12-18T06:59:21;-9.80;99.90
37242;DHT22;23135;51.078;12.108;2022-12-18T07:01:47;-9.80;99.90
37242;DHT22;23135;51.078;12.108;2022-12-18T07:04:12;-9.90;99.90
37242;DHT22;23135;51.078;12.108;2022-12-18T07:06:38;-9.90;99.90
37242;DHT22;23135;51.078;12.108;2022-12-18T07:09:04;-9.90;99.90
37242;DHT22;23135;51.078;12.108;2022-12-18T07:11:29;-9.90;99.90
37242;DHT22;23135;51.078;12.108;2022-12-18T07:13:57;-9.90;99.90
37242;DHT22;23135;51.078;12.108;2022-12-18T07:16:22;-9.80;99.90
37242;DHT22;23135;51.078;12.108;2022-12-18T07:18:48;-9.80;99.90
37242;DHT22;23135;51.078;12.108;2022-12-18T07:21:16;-9.80;99.90
37242;DHT22;23135;51.078;12.108;2022-12-18T07:23:42;-9.90;99.90
37242;DHT22;23135;51.078;12.108;2022-12-18T07:26:11;-9.90;99.90
37242;DHT22;23135;51.078;12.108;2022-12-18T07:28:37;-10.00;99.90
37242;DHT22;23135;51.078;12.108;2022-12-18T07:31:08;-10.00;99.90
37242;DHT22;23135;51.078;12.108;2022-12-18T07:33:34;-10.10;99.90
37242;DHT22;23135;51.078;12.108;2022-12-18T07:36:00;-10.00;99.90
37242;DHT22;23135;51.078;12.108;2022-12-18T07:38:26;-10.00;99.90
37242;DHT22;23135;51.078;12.108;2022-12-18T07:40:52;-10.00;99.90
37242;DHT22;23135;51.078;12.108;2022-12-18T07:43:18;-10.00;99.90
37242;DHT22;23135;51.078;12.108;2022-12-18T07:45:43;-10.00;99.90
37242;DHT22;23135;51.078;12.108;2022-12-18T07:48:09;-9.90;99.90
37242;DHT22;23135;51.078;12.108;2022-12-18T07:50:35;-9.90;99.90
37242;DHT22;23135;51.078;12.108;2022-12-18T07:53:01;-9.80;99.90
37242;DHT22;23135;51.078;12.108;2022-12-18T07:55:31;-9.80;99.90
37242;DHT22;23135;51.078;12.108;2022-12-18T07:57:57;-9.60;99.90
37242;DHT22;23135;51.078;12.108;2022-12-18T08:00:22;-9.40;99.90
37242;DHT22;23135;51.078;12.108;2022-12-18T08:02:48;-9.20;99.90
37242;DHT22;23135;51.078;12.108;2022-12-18T08:05:14;-9.10;99.90
37242;DHT22;23135;51.078;12.108;2022-12-18T08:07:39;-9.00;99.90
37242;DHT22;23135;51.078;12.108;2022-12-18T08:10:06;-9.00;99.90
37242;DHT22;23135;51.078;12.108;2022-12-18T08:12:32;-9.20;99.90
37242;DHT22;23135;51.078;12.108;2022-12-18T08:14:57;-9.40;99.90
37242;DHT22;23135;51.078;12.108;2022-12-18T08:17:23;-9.40;99.90
37242;DHT22;23135;51.078;12.108;2022-12-18T08:19:49;-9.30;99.90
37242;DHT22;23135;51.078;12.108;2022-12-18T08:22:14;-9.20;99.90
37242;DHT22;23135;51.078;12.108;2022-12-18T08:24:40;-9.10;99.90
37242;DHT22;23135;51.078;12.108;2022-12-18T08:27:05;-9.10;99.90
37242;DHT22;23135;51.078;12.108;2022-12-18T08:29:31;-9.00;99.90
37242;DHT22;23135;51.078;12.108;2022-12-18T08:31:57;-9.00;99.90
37242;DHT22;23135;51.078;12.108;2022-12-18T08:34:23;-8.90;99.90
37242;DHT22;23135;51.078;12.108;2022-12-18T08:36:48;-8.80;99.90
37242;DHT22;23135;51.078;12.108;2022-12-18T08:39:14;-8.80;99.90
37242;DHT22;23135;51.078;12.108;2022-12-18T08:41:40;-8.80;99.90
37242;DHT22;23135;51.078;12.108;2022-12-18T08:44:07;-8.60;99.90
37242;DHT22;23135;51.078;12.108;2022-12-18T08:46:51;-8.40;99.90
37242;DHT22;23135;51.078;12.108;2022-12-18T08:49:17;-8.20;99.90
37242;DHT22;23135;51.078;12.108;2022-12-18T08:51:42;-8.00;99.90
37242;DHT22;23135;51.078;12.108;2022-12-18T08:54:11;-7.90;99.90
37242;DHT22;23135;51.078;12.108;2022-12-18T08:56:36;-7.80;99.90
37242;DHT22;23135;51.078;12.108;2022-12-18T08:59:02;-7.80;99.90
37242;DHT22;23135;51.078;12.108;2022-12-18T09:01:29;-7.70;99.90
37242;DHT22;23135;51.078;12.108;2022-12-18T09:03:55;-7.60;99.90
37242;DHT22;23135;51.078;12.108;2022-12-18T09:06:22;-7.60;99.90
37242;DHT22;23135;51.078;12.108;2022-12-18T09:08:48;-7.50;99.90
37242;DHT22;23135;51.078;12.108;2022-12-18T09:11:25;-7.40;99.90
37242;DHT22;23135;51.078;12.108;2022-12-18T09:13:52;-7.20;99.90
37242;DHT22;23135;51.078;12.108;2022-12-18T09:16:18;-7.10;99.90
37242;DHT22;23135;51.078;12.108;2022-12-18T09:18:45;-7.00;99.90
37242;DHT22;23135;51.078;12.108;2022-12-18T09:21:16;-6.90;99.90
37242;DHT22;23135;51.078;12.108;2022-12-18T09:23:43;-6.80;99.90
37242;DHT22;23135;51.078;12.108;2022-12-18T09:26:08;-6.70;99.90
37242;DHT22;23135;51.078;12.108;2022-12-18T09:28:34;-6.70;99.90
37242;DHT22;23135;51.078;12.108;2022-12-18T09:31:04;-6.60;99.90
37242;DHT22;23135;51.078;12.108;2022-12-18T09:33:30;-6.50;99.90
37242;DHT22;23135;51.078;12.108;2022-12-18T09:35:56;-6.30;99.90
37242;DHT22;23135;51.078;12.108;2022-12-18T09:38:21;-6.10;99.90
37242;DHT22;23135;51.078;12.108;2022-12-18T09:40:51;-5.90;99.90
37242;DHT22;23135;51.078;12.108;2022-12-18T09:43:35;-5.80;99.90
37242;DHT22;23135;51.078;12.108;2022-12-18T09:46:06;-5.70;99.90
37242;DHT22;23135;51.078;12.108;2022-12-18T09:48:40;-5.70;99.90
37242;DHT22;23135;51.078;12.108;2022-12-18T09:51:21;-5.70;99.90
37242;DHT22;23135;51.078;12.108;2022-12-18T09:53:57;-5.70;99.90
37242;DHT22;23135;51.078;12.108;2022-12-18T09:56:25;-5.60;99.90
37242;DHT22;23135;51.078;12.108;2022-12-18T09:58:59;-5.70;99.90
37242;DHT22;23135;51.078;12.108;2022-12-18T10:01:27;-5.70;99.90
37242;DHT22;23135;51.078;12.108;2022-12-18T10:03:53;-5.70;99.90
37242;DHT22;23135;51.078;12.108;2022-12-18T10:06:40;-5.70;99.90
37242;DHT22;23135;51.078;12.108;2022-12-18T10:09:31;-5.70;99.90
37242;DHT22;23135;51.078;12.108;2022-12-18T10:12:17;-5.60;99.90
37242;DHT22;23135;51.078;12.108;2022-12-18T10:20:09;-5.40;99.90
37242;DHT22;23135;51.078;12.108;2022-12-18T10:22:45;-5.40;99.90
37242;DHT22;23135;51.078;12.108;2022-12-18T10:25:16;-5.30;99.90
37242;DHT22;23135;51.078;12.108;2022-12-18T10:27:44;-5.20;99.90
37242;DHT22;23135;51.078;12.108;2022-12-18T10:30:18;-5.10;99.90
37242;DHT22;23135;51.078;12.108;2022-12-18T10:32:44;-5.00;99.90
37242;DHT22;23135;51.078;12.108;2022-12-18T10:35:20;-4.90;99.90
37242;DHT22;23135;51.078;12.108;2022-12-18T10:38:05;-4.80;99.90
37242;DHT22;23135;51.078;12.108;2022-12-18T10:40:31;-4.70;99.90
37242;DHT22;23135;51.078;12.108;2022-12-18T10:43:09;-4.60;99.90
37242;DHT22;23135;51.078;12.108;2022-12-18T10:45:36;-4.60;99.90
37242;DHT22;23135;51.078;12.108;2022-12-18T10:48:01;-4.50;99.90
37242;DHT22;23135;51.078;12.108;2022-12-18T10:50:33;-4.40;99.90
37242;DHT22;23135;51.078;12.108;2022-12-18T10:53:01;-4.30;99.90
37242;DHT22;23135;51.078;12.108;2022-12-18T10:55:34;-4.20;99.90
37242;DHT22;23135;51.078;12.108;2022-12-18T10:58:29;-4.10;99.90
37242;DHT22;23135;51.078;12.108;2022-12-18T11:01:11;-4.00;99.90
37242;DHT22;23135;51.078;12.108;2022-12-18T11:03:43;-4.00;99.90
37242;DHT22;23135;51.078;12.108;2022-12-18T11:06:17;-3.90;99.90
37242;DHT22;23135;51.078;12.108;2022-12-18T11:09:04;-3.80;99.90
37242;DHT22;23135;51.078;12.108;2022-12-18T11:11:31;-3.70;99.90
37242;DHT22;23135;51.078;12.108;2022-12-18T11:14:05;-3.60;99.90
37242;DHT22;23135;51.078;12.108;2022-12-18T11:16:44;-3.60;99.90
37242;DHT22;23135;51.078;12.108;2022-12-18T11:19:34;-3.60;99.90
37242;DHT22;23135;51.078;12.108;2022-12-18T11:22:25;-3.40;99.90
37242;DHT22;23135;51.078;12.108;2022-12-18T11:27:23;-3.10;99.90
37242;DHT22;23135;51.078;12.108;2022-12-18T11:29:50;-3.10;99.90
37242;DHT22;23135;51.078;12.108;2022-12-18T11:32:38;-3.10;99.90
37242;DHT22;23135;51.078;12.108;2022-12-18T11:35:17;-2.80;99.90
37242;DHT22;23135;51.078;12.108;2022-12-18T11:37:49;-2.50;99.90
37242;DHT22;23135;51.078;12.108;2022-12-18T11:40:35;-2.40;99.90
37242;DHT22;23135;51.078;12.108;2022-12-18T11:43:28;-2.30;99.90
37242;DHT22;23135;51.078;12.108;2022-12-18T11:46:07;-2.30;99.90
37242;DHT22;23135;51.078;12.108;2022-12-18T11:51:31;-2.40;99.90
37242;DHT22;23135;51.078;12.108;2022-12-18T11:53:57;-2.30;99.90
37242;DHT22;23135;51.078;12.108;2022-12-18T11:56:32;-2.30;99.90
37242;DHT22;23135;51.078;12.108;2022-12-18T12:01:38;-2.30;99.90
37242;DHT22;23135;51.078;12.108;2022-12-18T12:12:48;-1.30;99.90
37242;DHT22;23135;51.078;12.108;2022-12-18T12:23:41;-1.80;99.90
37242;DHT22;23135;51.078;12.108;2022-12-18T12:26:36;-1.80;99.90
37242;DHT22;23135;51.078;12.108;2022-12-18T12:34:33;-2.40;99.90
37242;DHT22;23135;51.078;12.108;2022-12-18T12:39:47;-2.00;99.90
37242;DHT22;23135;51.078;12.108;2022-12-18T12:42:43;-1.60;99.90
37242;DHT22;23135;51.078;12.108;2022-12-18T12:45:51;-1.10;99.90
37242;DHT22;23135;51.078;12.108;2022-12-18T12:48:27;-0.70;99.90
37242;DHT22;23135;51.078;12.108;2022-12-18T12:50:57;-0.90;99.90
37242;DHT22;23135;51.078;12.108;2022-12-18T12:53:30;-1.30;99.90
37242;DHT22;23135;51.078;12.108;2022-12-18T12:55:56;-1.80;99.90
37242;DHT22;23135;51.078;12.108;2022-12-18T12:58:44;-2.00;99.90
37242;DHT22;23135;51.078;12.108;2022-12-18T13:07:20;-1.40;99.90
37242;DHT22;23135;51.078;12.108;2022-12-18T13:12:36;-1.20;99.90
37242;DHT22;23135;51.078;12.108;2022-12-18T13:15:24;-1.10;99.90
37242;DHT22;23135;51.078;12.108;2022-12-18T13:20:36;-0.90;99.90
37242;DHT22;23135;51.078;12.108;2022-12-18T13:25:51;-1.10;99.90
37242;DHT22;23135;51.078;12.108;2022-12-18T13:30:59;-2.20;99.90
37242;DHT22;23135;51.078;12.108;2022-12-18T13:36:08;-2.60;99.90
37242;DHT22;23135;51.078;12.108;2022-12-18T13:38:36;-2.70;99.90
37242;DHT22;23135;51.078;12.108;2022-12-18T13:43:54;-3.40;99.90
37242;DHT22;23135;51.078;12.108;2022-12-18T13:46:21;-3.80;99.90
37242;DHT22;23135;51.078;12.108;2022-12-18T13:51:18;-3.90;99.90
37242;DHT22;23135;51.078;12.108;2022-12-18T13:53:58;-3.90;99.90
37242;DHT22;23135;51.078;12.108;2022-12-18T13:56:26;-4.00;99.90
37242;DHT22;23135;51.078;12.108;2022-12-18T14:01:36;-4.00;99.90
37242;DHT22;23135;51.078;12.108;2022-12-18T14:04:18;-4.10;99.90
37242;DHT22;23135;51.078;12.108;2022-12-18T14:06:46;-4.20;99.90
37242;DHT22;23135;51.078;12.108;2022-12-18T14:09:16;-4.20;99.90
37242;DHT22;23135;51.078;12.108;2022-12-18T14:11:49;-4.20;99.90
37242;DHT22;23135;51.078;12.108;2022-12-18T14:14:17;-4.40;99.90
37242;DHT22;23135;51.078;12.108;2022-12-18T14:16:43;-4.50;99.90
37242;DHT22;23135;51.078;12.108;2022-12-18T14:19:16;-4.50;99.90
37242;DHT22;23135;51.078;12.108;2022-12-18T14:21:50;-4.50;99.90
37242;DHT22;23135;51.078;12.108;2022-12-18T14:24:21;-4.60;99.90
37242;DHT22;23135;51.078;12.108;2022-12-18T14:26:48;-4.60;99.90
37242;DHT22;23135;51.078;12.108;2022-12-18T14:31:44;-4.80;99.90
37242;DHT22;23135;51.078;12.108;2022-12-18T14:34:16;-4.90;99.90
37242;DHT22;23135;51.078;12.108;2022-12-18T14:36:52;-4.90;99.90
37242;DHT22;23135;51.078;12.108;2022-12-18T14:39:18;-5.00;99.90
37242;DHT22;23135;51.078;12.108;2022-12-18T14:41:43;-5.00;99.90
37242;DHT22;23135;51.078;12.108;2022-12-18T14:44:12;-5.10;99.90
37242;DHT22;23135;51.078;12.108;2022-12-18T14:46:45;-5.20;99.90
37242;DHT22;23135;51.078;12.108;2022-12-18T14:49:23;-5.20;99.90
37242;DHT22;23135;51.078;12.108;2022-12-18T14:51:53;-5.20;99.90
37242;DHT22;23135;51.078;12.108;2022-12-18T14:54:20;-5.10;99.90
37242;DHT22;23135;51.078;12.108;2022-12-18T14:57:11;-5.20;99.90
37242;DHT22;23135;51.078;12.108;2022-12-18T14:59:36;-5.10;99.90
37242;DHT22;23135;51.078;12.108;2022-12-18T15:02:15;-5.20;99.90
37242;DHT22;23135;51.078;12.108;2022-12-18T15:04:44;-5.20;99.90
37242;DHT22;23135;51.078;12.108;2022-12-18T15:07:16;-5.30;99.90
37242;DHT22;23135;51.078;12.108;2022-12-18T15:09:46;-5.30;99.90
37242;DHT22;23135;51.078;12.108;2022-12-18T15:12:33;-5.30;99.90
37242;DHT22;23135;51.078;12.108;2022-12-18T15:14:59;-5.20;99.90
37242;DHT22;23135;51.078;12.108;2022-12-18T15:17:24;-5.30;99.90
37242;DHT22;23135;51.078;12.108;2022-12-18T15:19:53;-5.30;99.90
37242;DHT22;23135;51.078;12.108;2022-12-18T15:22:26;-5.30;99.90
37242;DHT22;23135;51.078;12.108;2022-12-18T15:24:54;-5.30;99.90
37242;DHT22;23135;51.078;12.108;2022-12-18T15:27:30;-5.30;99.90
37242;DHT22;23135;51.078;12.108;2022-12-18T15:30:21;-5.40;99.90
37242;DHT22;23135;51.078;12.108;2022-12-18T15:32:46;-5.50;99.90
37242;DHT22;23135;51.078;12.108;2022-12-18T15:35:24;-5.50;99.90
37242;DHT22;23135;51.078;12.108;2022-12-18T15:37:51;-5.60;99.90
37242;DHT22;23135;51.078;12.108;2022-12-18T15:40:19;-5.70;99.90
37242;DHT22;23135;51.078;12.108;2022-12-18T15:42:46;-5.70;99.90
37242;DHT22;23135;51.078;12.108;2022-12-18T15:45:31;-5.70;99.90
37242;DHT22;23135;51.078;12.108;2022-12-18T15:47:57;-5.70;99.90
37242;DHT22;23135;51.078;12.108;2022-12-18T15:50:23;-5.70;99.90
37242;DHT22;23135;51.078;12.108;2022-12-18T15:52:52;-5.70;99.90
37242;DHT22;23135;51.078;12.108;2022-12-18T15:55:23;-5.70;99.90
37242;DHT22;23135;51.078;12.108;2022-12-18T15:58:09;-5.70;99.90
37242;DHT22;23135;51.078;12.108;2022-12-18T16:00:37;-5.80;99.90
37242;DHT22;23135;51.078;12.108;2022-12-18T16:03:04;-5.80;99.90
37242;DHT22;23135;51.078;12.108;2022-12-18T16:05:30;-5.90;99.90
37242;DHT22;23135;51.078;12.108;2022-12-18T16:07:56;-6.00;99.90
37242;DHT22;23135;51.078;12.108;2022-12-18T16:10:21;-6.00;99.90
37242;DHT22;23135;51.078;12.108;2022-12-18T16:12:48;-6.10;99.90
37242;DHT22;23135;51.078;12.108;2022-12-18T16:15:14;-6.00;99.90
37242;DHT22;23135;51.078;12.108;2022-12-18T16:17:45;-6.00;99.90
37242;DHT22;23135;51.078;12.108;2022-12-18T16:20:29;-5.90;99.90
37242;DHT22;23135;51.078;12.108;2022-12-18T16:22:55;-5.90;99.90
37242;DHT22;23135;51.078;12.108;2022-12-18T16:25:22;-5.90;99.90
37242;DHT22;23135;51.078;12.108;2022-12-18T16:27:50;-5.90;99.90
37242;DHT22;23135;51.078;12.108;2022-12-18T16:30:18;-5.90;99.90
37242;DHT22;23135;51.078;12.108;2022-12-18T16:32:44;-5.80;99.90
37242;DHT22;23135;51.078;12.108;2022-12-18T16:35:11;-5.60;99.90
37242;DHT22;23135;51.078;12.108;2022-12-18T16:37:38;-5.50;99.90
37242;DHT22;23135;51.078;12.108;2022-12-18T16:40:05;-5.30;99.90
37242;DHT22;23135;51.078;12.108;2022-12-18T16:42:32;-5.10;99.90
37242;DHT22;23135;51.078;12.108;2022-12-18T16:44:58;-5.10;99.90
37242;DHT22;23135;51.078;12.108;2022-12-18T16:47:23;-4.80;99.90
37242;DHT22;23135;51.078;12.108;2022-12-18T16:49:49;-4.50;99.90
37242;DHT22;23135;51.078;12.108;2022-12-18T16:52:17;-4.30;99.90
37242;DHT22;23135;51.078;12.108;2022-12-18T16:54:43;-4.10;99.90
37242;DHT22;23135;51.078;12.108;2022-12-18T16:57:13;-4.10;99.90